Time;durP1;ratioP1;P1;durP2;ratioP2;P2;SDS_P1;SDS_P2;PMS_P1;PMS_P2;Temp;Humidity;BMP_temperature;BMP_pressure;BME280_temperature;BME280_humidity;BME280_pressure;Samples;Min_cycle;Max_cycle;Signal;HPM_P1;HPM_P2
2022/03/02 00:00:28;;;;;;;30.83;14.27;;;0.00;99.90;;;;;;4438076;32;20229;-70
2022/03/02 00:02:55;;;;;;;30.60;14.13;;;0.10;99.90;;;;;;4441848;32;20543;-70
2022/03/02 00:05:24;;;;;;;33.10;14.87;;;0.00;99.90;;;;;;4442053;32;20174;-70
2022/03/02 00:07:51;;;;;;;31.57;14.80;;;0.00;99.90;;;;;;4436337;32;20181;-70
2022/03/02 00:10:18;;;;;;;35.20;15.17;;;0.00;99.90;;;;;;4428472;32;20188;-70
2022/03/02 00:12:45;;;;;;;35.73;15.00;;;0.00;99.90;;;;;;4429085;32;20178;-70
2022/03/02 00:15:12;;;;;;;33.83;14.87;;;0.00;99.90;;;;;;4426997;32;20233;-69
2022/03/02 00:17:39;;;;;;;32.67;14.87;;;0.00;99.90;;;;;;4427277;32;20604;-70
2022/03/02 00:20:07;;;;;;;36.83;14.87;;;0.00;99.90;;;;;;4429271;32;20268;-70
2022/03/02 00:22:33;;;;;;;30.50;14.30;;;-0.10;99.90;;;;;;4428037;32;20205;-69
2022/03/02 00:25:01;;;;;;;32.67;15.17;;;-0.10;99.90;;;;;;4428680;32;20224;-69
2022/03/02 00:27:28;;;;;;;39.27;15.60;;;-0.10;99.90;;;;;;4431863;32;20257;-69
2022/03/02 00:29:54;;;;;;;33.47;15.57;;;-0.10;99.90;;;;;;4434603;32;20233;-69
2022/03/02 00:32:21;;;;;;;34.80;15.50;;;-0.10;99.90;;;;;;4431681;32;20200;-70
2022/03/02 00:34:48;;;;;;;35.43;15.50;;;-0.10;99.90;;;;;;4441802;32;20174;-69
2022/03/02 00:37:15;;;;;;;35.37;16.20;;;-0.10;99.90;;;;;;4442001;32;20337;-70
2022/03/02 00:39:44;;;;;;;34.23;15.30;;;-0.10;99.90;;;;;;4429030;32;20223;-69
2022/03/02 00:42:11;;;;;;;36.37;15.73;;;-0.20;99.90;;;;;;4440673;32;20213;-70
2022/03/02 00:44:38;;;;;;;34.30;15.70;;;-0.20;99.90;;;;;;4441131;32;20189;-70
2022/03/02 00:47:05;;;;;;;36.43;14.97;;;-0.20;99.90;;;;;;4416236;32;20193;-70
2022/03/02 00:49:34;;;;;;;31.07;15.10;;;-0.20;99.90;;;;;;4441483;32;20171;-69
2022/03/02 00:52:01;;;;;;;37.07;16.50;;;-0.10;99.90;;;;;;4427970;32;20217;-70
2022/03/02 00:54:28;;;;;;;38.97;16.23;;;-0.20;99.90;;;;;;4439974;32;20237;-70
2022/03/02 00:56:55;;;;;;;35.33;15.97;;;-0.20;99.90;;;;;;4416337;32;20210;-70
2022/03/02 00:59:22;;;;;;;37.10;16.47;;;-0.30;99.90;;;;;;4440060;32;20179;-70
2022/03/02 01:01:49;;;;;;;35.87;15.27;;;-0.30;99.90;;;;;;4426143;32;20182;-71
2022/03/02 01:04:16;;;;;;;37.33;16.33;;;-0.40;99.90;;;;;;4427312;32;20222;-70
2022/03/02 01:06:43;;;;;;;38.60;16.57;;;-0.40;99.90;;;;;;4441310;32;20177;-70
2022/03/02 01:09:09;;;;;;;40.93;16.93;;;-0.40;99.90;;;;;;4441447;32;20159;-69
2022/03/02 01:11:36;;;;;;;39.80;16.83;;;-0.50;99.90;;;;;;4439505;32;20245;-70
2022/03/02 01:14:03;;;;;;;41.40;17.10;;;-0.50;99.90;;;;;;4441014;32;20229;-70
2022/03/02 01:16:30;;;;;;;42.03;18.10;;;-0.50;99.90;;;;;;4439397;32;20248;-70
2022/03/02 01:18:57;;;;;;;35.03;16.20;;;-0.50;99.90;;;;;;4439391;32;20606;-70
2022/03/02 01:21:24;;;;;;;39.43;16.60;;;-0.50;99.90;;;;;;4442230;32;20471;-71
2022/03/02 01:23:53;;;;;;;37.00;17.00;;;-0.60;99.90;;;;;;4440436;32;20190;-70
2022/03/02 01:26:21;;;;;;;39.97;16.80;;;-0.60;99.90;;;;;;4439797;32;20178;-69
2022/03/02 01:28:48;;;;;;;42.30;17.87;;;-0.60;99.90;;;;;;4439909;32;20230;-69
2022/03/02 01:31:15;;;;;;;41.23;17.37;;;-0.70;99.90;;;;;;4441583;32;20201;-71
2022/03/02 01:33:42;;;;;;;43.57;17.83;;;-0.70;99.90;;;;;;4441346;32;20246;-70
2022/03/02 01:36:09;;;;;;;40.53;17.67;;;-0.80;99.90;;;;;;4440949;32;20222;-70
2022/03/02 01:38:36;;;;;;;44.50;17.97;;;-0.80;99.90;;;;;;4439448;32;20409;-69
2022/03/02 01:41:04;;;;;;;36.77;17.37;;;-0.70;99.90;;;;;;4440526;32;20491;-70
2022/03/02 01:43:31;;;;;;;37.30;17.53;;;-0.80;99.90;;;;;;4439594;32;20262;-70
2022/03/02 01:45:58;;;;;;;38.30;18.03;;;-0.80;99.90;;;;;;4439366;32;20173;-70
2022/03/02 01:48:25;;;;;;;39.93;18.03;;;-0.80;99.90;;;;;;4439221;32;20221;-70
2022/03/02 01:50:52;;;;;;;42.53;17.80;;;-0.80;99.90;;;;;;4440329;32;20221;-69
2022/03/02 01:53:18;;;;;;;38.30;17.63;;;-0.80;99.90;;;;;;4440184;32;20204;-70
2022/03/02 01:55:45;;;;;;;40.60;17.50;;;-0.80;99.90;;;;;;4442428;32;20169;-70
2022/03/02 01:58:12;;;;;;;39.60;17.70;;;-0.70;99.90;;;;;;4426822;32;20166;-71
2022/03/02 02:00:39;;;;;;;37.17;16.97;;;-0.70;99.90;;;;;;4439702;32;20242;-70
2022/03/02 02:03:06;;;;;;;40.57;17.47;;;-0.70;99.90;;;;;;4441758;32;20182;-70
2022/03/02 02:05:33;;;;;;;43.27;17.77;;;-0.80;99.90;;;;;;4437578;32;20228;-70
2022/03/02 02:08:00;;;;;;;39.37;17.53;;;-0.80;99.90;;;;;;4443053;32;20533;-69
2022/03/02 02:10:27;;;;;;;42.80;17.83;;;-0.80;99.90;;;;;;4443132;32;20224;-69
2022/03/02 02:12:54;;;;;;;40.10;18.03;;;-0.90;99.90;;;;;;4441213;32;20472;-69
2022/03/02 02:15:21;;;;;;;42.87;18.43;;;-0.90;99.90;;;;;;4442820;32;20221;-69
2022/03/02 02:17:48;;;;;;;40.03;18.00;;;-0.90;99.90;;;;;;4442895;32;20237;-69
2022/03/02 02:20:15;;;;;;;46.50;18.60;;;-1.00;99.90;;;;;;4443003;32;20197;-70
2022/03/02 02:22:44;;;;;;;43.53;18.20;;;-1.00;99.90;;;;;;4442591;32;20201;-70
2022/03/02 02:25:12;;;;;;;43.57;18.00;;;-1.00;99.90;;;;;;4441414;32;20193;-69
2022/03/02 02:27:47;;;;;;;42.10;18.30;;;-1.00;99.90;;;;;;4440867;32;20200;-69
2022/03/02 02:30:16;;;;;;;47.63;19.13;;;-1.00;99.90;;;;;;4440771;32;20231;-70
2022/03/02 02:32:43;;;;;;;43.87;18.90;;;-1.00;99.90;;;;;;4456326;32;20201;-69
2022/03/02 02:35:10;;;;;;;42.37;18.73;;;-1.00;99.90;;;;;;4440654;32;20227;-69
2022/03/02 02:37:38;;;;;;;50.00;19.00;;;-0.90;99.90;;;;;;4441606;32;20252;-69
2022/03/02 02:40:16;;;;;;;46.40;19.97;;;-0.90;99.90;;;;;;4443469;32;20422;-71
2022/03/02 02:42:45;;;;;;;43.93;19.53;;;-0.90;99.90;;;;;;4441223;32;20261;-70
2022/03/02 02:45:30;;;;;;;46.53;19.60;;;-1.00;99.90;;;;;;4442979;32;20177;-70
2022/03/02 02:47:58;;;;;;;46.30;19.53;;;-1.00;99.90;;;;;;4440548;32;20177;-70
2022/03/02 02:50:30;;;;;;;51.17;20.67;;;-1.00;99.90;;;;;;4456537;32;20146;-70
2022/03/02 02:53:00;;;;;;;45.73;20.13;;;-1.00;99.90;;;;;;4441461;32;20245;-69
2022/03/02 02:55:30;;;;;;;47.77;20.77;;;-1.10;99.90;;;;;;4442665;32;20250;-70
2022/03/02 02:57:58;;;;;;;45.77;20.30;;;-1.10;99.90;;;;;;4440613;32;20178;-69
2022/03/02 03:00:31;;;;;;;47.77;20.93;;;-1.10;99.90;;;;;;4441254;32;20412;-70
2022/03/02 03:03:00;;;;;;;52.10;22.90;;;-1.20;99.90;;;;;;4441750;32;20239;-69
2022/03/02 03:05:29;;;;;;;48.57;21.77;;;-1.20;99.90;;;;;;4440578;32;20531;-70
2022/03/02 03:07:57;;;;;;;50.93;22.30;;;-1.20;99.90;;;;;;4440421;32;20209;-69
2022/03/02 03:10:25;;;;;;;50.80;21.73;;;-1.20;99.90;;;;;;4440449;32;20197;-70
2022/03/02 03:12:53;;;;;;;53.63;22.37;;;-1.10;99.90;;;;;;4441478;32;20185;-69
2022/03/02 03:15:21;;;;;;;48.00;21.83;;;-1.20;99.90;;;;;;4440303;32;20228;-69
2022/03/02 03:17:49;;;;;;;51.57;23.13;;;-1.20;99.90;;;;;;4455791;32;20190;-69
2022/03/02 03:20:18;;;;;;;53.37;22.90;;;-1.20;99.90;;;;;;4454805;32;20177;-69
2022/03/02 03:22:46;;;;;;;51.87;22.70;;;-1.30;99.90;;;;;;4442439;32;20138;-70
2022/03/02 03:25:13;;;;;;;51.17;23.33;;;-1.30;99.90;;;;;;4441087;32;20203;-69
2022/03/02 03:27:41;;;;;;;54.90;23.50;;;-1.40;99.90;;;;;;4440717;32;20201;-69
2022/03/02 03:30:10;;;;;;;50.50;22.83;;;-1.40;99.90;;;;;;4441085;32;20193;-70
2022/03/02 03:32:38;;;;;;;52.90;23.07;;;-1.40;99.90;;;;;;4455249;32;20181;-69
2022/03/02 03:35:08;;;;;;;50.03;22.47;;;-1.30;99.90;;;;;;4427640;32;20297;-70
2022/03/02 03:37:35;;;;;;;56.13;23.67;;;-1.40;99.90;;;;;;4440365;32;20221;-69
2022/03/02 03:40:04;;;;;;;54.63;22.73;;;-1.40;99.90;;;;;;4439832;32;20242;-69
2022/03/02 03:42:30;;;;;;;53.10;23.43;;;-1.40;99.90;;;;;;4439895;32;20213;-70
2022/03/02 03:44:57;;;;;;;51.27;23.17;;;-1.40;99.90;;;;;;4429044;32;20276;-69
2022/03/02 03:47:24;;;;;;;46.63;23.17;;;-1.40;99.90;;;;;;4440187;32;20198;-70
2022/03/02 03:49:51;;;;;;;59.73;24.83;;;-1.40;99.90;;;;;;4439827;32;20476;-70
2022/03/02 03:52:18;;;;;;;48.90;23.53;;;-1.40;99.90;;;;;;4427842;32;20409;-69
2022/03/02 03:54:45;;;;;;;53.80;24.00;;;-1.40;99.90;;;;;;4439550;32;20249;-69
2022/03/02 03:57:12;;;;;;;51.60;23.13;;;-1.40;99.90;;;;;;4441450;32;20233;-68
2022/03/02 03:59:39;;;;;;;52.93;23.90;;;-1.50;99.90;;;;;;4440100;32;20242;-69
2022/03/02 04:02:06;;;;;;;51.97;23.23;;;-1.50;99.90;;;;;;4439825;32;20204;-69
2022/03/02 04:04:34;;;;;;;58.87;24.37;;;-1.50;99.90;;;;;;4442059;32;20290;-69
2022/03/02 04:07:00;;;;;;;50.97;23.13;;;-1.50;99.90;;;;;;4440767;32;20174;-69
2022/03/02 04:09:27;;;;;;;56.77;24.17;;;-1.50;99.90;;;;;;4440326;32;20268;-70
2022/03/02 04:11:54;;;;;;;51.00;23.70;;;-1.60;99.90;;;;;;4441133;32;20232;-69
2022/03/02 04:14:21;;;;;;;58.43;24.23;;;-1.60;99.90;;;;;;4454685;32;20538;-69
2022/03/02 04:16:48;;;;;;;50.97;24.10;;;-1.70;99.90;;;;;;4441902;32;20252;-70
2022/03/02 04:19:15;;;;;;;58.53;25.40;;;-1.60;99.90;;;;;;4427136;32;20216;-69
2022/03/02 04:21:42;;;;;;;54.67;24.90;;;-1.60;99.90;;;;;;4428818;32;20547;-69
2022/03/02 04:24:08;;;;;;;54.07;25.13;;;-1.60;99.90;;;;;;4441827;32;20197;-70
2022/03/02 04:26:35;;;;;;;58.93;26.47;;;-1.60;99.90;;;;;;4440747;32;20699;-68
2022/03/02 04:29:02;;;;;;;62.23;27.00;;;-1.60;99.90;;;;;;4441084;32;20215;-69
2022/03/02 04:31:29;;;;;;;60.83;27.30;;;-1.60;99.90;;;;;;4441851;32;20190;-69
2022/03/02 04:33:57;;;;;;;63.23;28.87;;;-1.60;99.90;;;;;;4453955;32;20188;-68
2022/03/02 04:36:24;;;;;;;67.83;31.33;;;-1.60;99.90;;;;;;4439917;32;20204;-69
2022/03/02 04:38:51;;;;;;;66.40;30.30;;;-1.60;99.90;;;;;;4439606;32;20198;-70
2022/03/02 04:41:18;;;;;;;65.07;29.90;;;-1.60;99.90;;;;;;4454193;32;20228;-69
2022/03/02 04:43:45;;;;;;;66.63;30.93;;;-1.70;99.90;;;;;;4453582;32;20181;-68
2022/03/02 04:46:12;;;;;;;60.70;28.93;;;-1.70;99.90;;;;;;4453699;32;20177;-70
2022/03/02 04:48:39;;;;;;;65.20;29.83;;;-1.70;99.90;;;;;;4439581;32;20178;-68
2022/03/02 04:51:06;;;;;;;62.23;29.13;;;-1.80;99.90;;;;;;4439459;32;20193;-68
2022/03/02 04:53:33;;;;;;;63.40;28.47;;;-1.80;99.90;;;;;;4454982;32;20530;-69
2022/03/02 04:56:00;;;;;;;63.17;28.37;;;-1.80;99.90;;;;;;4440994;32;20201;-69
2022/03/02 04:58:27;;;;;;;57.57;26.50;;;-1.90;99.90;;;;;;4456562;32;20166;-69
2022/03/02 05:00:54;;;;;;;55.87;25.50;;;-1.90;99.90;;;;;;4456879;32;20170;-68
2022/03/02 05:03:21;;;;;;;58.43;25.80;;;-2.00;99.90;;;;;;4442318;32;20177;-70
2022/03/02 05:05:48;;;;;;;58.20;24.87;;;-2.00;99.90;;;;;;4444255;32;20265;-69
2022/03/02 05:08:15;;;;;;;56.57;25.57;;;-2.10;99.90;;;;;;4444048;32;20235;-69
2022/03/02 05:10:41;;;;;;;61.07;25.23;;;-2.10;99.90;;;;;;4442558;32;20583;-69
2022/03/02 05:13:09;;;;;;;54.23;24.67;;;-2.10;99.90;;;;;;4442617;32;20296;-69
2022/03/02 05:15:36;;;;;;;51.90;23.23;;;-2.20;99.90;;;;;;4457674;32;20526;-70
2022/03/02 05:18:03;;;;;;;52.20;22.97;;;-2.20;99.90;;;;;;4457907;32;20518;-69
2022/03/02 05:20:30;;;;;;;53.67;24.03;;;-2.20;99.90;;;;;;4444154;32;20216;-70
2022/03/02 05:22:57;;;;;;;54.00;23.90;;;-2.20;99.90;;;;;;4443494;32;20531;-69
2022/03/02 05:25:24;;;;;;;52.90;23.83;;;-2.20;99.90;;;;;;4443707;32;20516;-69
2022/03/02 05:27:51;;;;;;;53.33;23.17;;;-2.20;99.90;;;;;;4441643;32;20194;-69
2022/03/02 05:30:19;;;;;;;51.57;22.83;;;-2.30;99.90;;;;;;4441932;32;20220;-70
2022/03/02 05:32:46;;;;;;;49.30;22.70;;;-2.20;99.90;;;;;;4442701;32;20197;-68
2022/03/02 05:35:14;;;;;;;58.23;22.87;;;-2.20;99.90;;;;;;4443519;32;20241;-69
2022/03/02 05:37:42;;;;;;;50.03;23.20;;;-2.20;99.90;;;;;;4456152;32;20526;-70
2022/03/02 05:40:17;;;;;;;49.93;22.10;;;-2.20;99.90;;;;;;4443358;32;20194;-70
2022/03/02 05:42:50;;;;;;;51.63;22.90;;;-2.10;99.90;;;;;;4441958;32;20204;-71
2022/03/02 05:45:17;;;;;;;49.70;22.47;;;-2.10;99.90;;;;;;4442817;32;20579;-69
2022/03/02 05:47:44;;;;;;;50.97;22.20;;;-2.20;99.90;;;;;;4456201;32;20431;-69
2022/03/02 05:50:11;;;;;;;53.63;22.90;;;-2.20;99.90;;;;;;4443333;32;20178;-70
2022/03/02 05:52:38;;;;;;;52.63;21.33;;;-2.20;99.90;;;;;;4442569;32;20177;-70
2022/03/02 05:55:05;;;;;;;50.97;22.77;;;-2.20;99.90;;;;;;4443173;32;20278;-70
2022/03/02 05:57:32;;;;;;;47.43;20.73;;;-2.20;99.90;;;;;;4455780;32;20210;-70
2022/03/02 05:59:59;;;;;;;54.03;21.37;;;-2.20;99.90;;;;;;4441452;32;20216;-69
2022/03/02 06:02:26;;;;;;;45.87;20.50;;;-2.10;99.90;;;;;;4442704;32;20225;-70
2022/03/02 06:04:53;;;;;;;46.13;20.10;;;-2.10;99.90;;;;;;4443022;32;20242;-69
2022/03/02 06:07:20;;;;;;;47.37;21.50;;;-2.10;99.90;;;;;;4440790;32;20567;-70
2022/03/02 06:09:49;;;;;;;51.20;20.93;;;-2.00;99.90;;;;;;4455930;32;20210;-71
2022/03/02 06:12:16;;;;;;;50.37;20.83;;;-2.00;99.90;;;;;;4441976;32;20241;-70
2022/03/02 06:14:44;;;;;;;49.67;21.40;;;-1.90;99.90;;;;;;4442271;32;20587;-70
2022/03/02 06:17:11;;;;;;;52.87;21.03;;;-1.90;99.90;;;;;;4457166;32;20177;-69
2022/03/02 06:19:40;;;;;;;44.33;19.53;;;-1.80;99.90;;;;;;4441500;32;20198;-70
2022/03/02 06:22:07;;;;;;;45.53;20.27;;;-1.80;99.90;;;;;;4442775;32;20185;-70
2022/03/02 06:24:34;;;;;;;47.33;19.83;;;-1.70;99.90;;;;;;4456965;32;20188;-69
2022/03/02 06:27:01;;;;;;;51.07;19.93;;;-1.60;99.90;;;;;;4429727;32;20212;-69
2022/03/02 06:29:28;;;;;;;42.60;19.83;;;-1.50;99.90;;;;;;4441457;32;20555;-70
2022/03/02 06:31:55;;;;;;;46.63;19.10;;;-1.50;99.90;;;;;;4430149;32;20212;-70
2022/03/02 06:34:22;;;;;;;43.10;18.80;;;-1.40;99.90;;;;;;4442889;32;20194;-70
2022/03/02 06:36:50;;;;;;;42.10;18.47;;;-1.30;99.90;;;;;;4442679;32;20213;-70
2022/03/02 06:39:22;;;;;;;44.03;18.80;;;-1.30;99.90;;;;;;4455485;32;20186;-71
2022/03/02 06:42:11;;;;;;;40.00;18.67;;;-1.20;99.90;;;;;;4440618;32;20240;-70
2022/03/02 06:44:54;;;;;;;38.43;18.07;;;-1.10;99.90;;;;;;4439448;32;20445;-71
2022/03/02 06:47:41;;;;;;;40.33;18.00;;;-1.00;99.90;;;;;;4439565;32;20547;-70
2022/03/02 06:50:10;;;;;;;44.00;18.63;;;-1.00;99.90;;;;;;4439493;32;20212;-70
2022/03/02 06:52:43;;;;;;;39.73;17.53;;;-1.00;99.90;;;;;;4439585;32;20178;-70
2022/03/02 06:55:17;;;;;;;37.47;17.43;;;-0.90;99.90;;;;;;4439038;32;20239;-70
2022/03/02 06:57:53;;;;;;;36.60;16.97;;;-0.90;99.90;;;;;;4439745;32;20178;-70
2022/03/02 07:00:21;;;;;;;38.20;18.37;;;-0.80;99.90;;;;;;4426616;32;20445;-71
2022/03/02 07:02:52;;;;;;;39.77;17.53;;;-0.70;99.90;;;;;;4438169;32;20197;-71
2022/03/02 07:05:20;;;;;;;42.47;17.50;;;-0.70;99.90;;;;;;4439246;32;20600;-72
2022/03/02 07:07:48;;;;;;;37.03;16.37;;;-0.60;99.90;;;;;;4439525;32;20202;-70
2022/03/02 07:10:15;;;;;;;36.40;17.10;;;-0.50;99.90;;;;;;4435976;32;20201;-73
2022/03/02 07:12:42;;;;;;;38.97;16.67;;;-0.50;99.90;;;;;;4425001;32;20186;-70
2022/03/02 07:15:10;;;;;;;38.57;17.20;;;-0.50;99.90;;;;;;4426815;32;20239;-73
2022/03/02 07:17:37;;;;;;;40.50;17.50;;;-0.30;99.90;;;;;;4424711;32;20175;-70
2022/03/02 07:20:10;;;;;;;38.90;15.90;;;-0.30;99.90;;;;;;4426941;32;20166;-74
2022/03/02 07:22:43;;;;;;;32.17;14.93;;;-0.20;99.90;;;;;;4425121;32;20192;-72
2022/03/02 07:25:18;;;;;;;38.80;16.97;;;-0.10;99.90;;;;;;4425328;32;20260;-70
2022/03/02 07:27:45;;;;;;;32.80;15.57;;;0.00;99.90;;;;;;4441154;32;20218;-71
2022/03/02 07:30:12;;;;;;;38.53;15.97;;;0.10;99.90;;;;;;4424957;32;20478;-71
2022/03/02 07:32:45;;;;;;;35.03;15.77;;;0.20;99.90;;;;;;4414023;32;20229;-70
2022/03/02 07:35:18;;;;;;;33.07;15.23;;;0.30;99.90;;;;;;4426458;32;20178;-71
2022/03/02 07:37:46;;;;;;;39.23;15.77;;;0.40;99.90;;;;;;4413944;32;20174;-71
2022/03/02 07:40:14;;;;;;;34.60;15.10;;;0.50;99.90;;;;;;4413166;32;20193;-70
2022/03/02 07:42:41;;;;;;;37.93;16.27;;;0.60;99.90;;;;;;4425516;32;20205;-72
2022/03/02 07:45:09;;;;;;;32.83;15.50;;;0.70;99.90;;;;;;4425375;32;20478;-70
2022/03/02 07:47:36;;;;;;;35.97;15.27;;;0.80;99.90;;;;;;4424795;32;20208;-71
2022/03/02 07:50:04;;;;;;;33.17;14.00;;;0.90;99.90;;;;;;4440294;32;20475;-71
2022/03/02 07:52:34;;;;;;;32.27;14.57;;;1.00;99.90;;;;;;4432590;32;20288;-72
2022/03/02 07:55:10;;;;;;;35.00;15.40;;;1.00;99.90;;;;;;4455576;32;20201;-74
2022/03/02 07:57:41;;;;;;;32.37;14.03;;;1.00;99.90;;;;;;4440348;32;20185;-74
2022/03/02 08:00:11;;;;;;;32.57;13.60;;;1.10;99.90;;;;;;4441102;32;20230;-72
2022/03/02 08:02:42;;;;;;;34.77;14.13;;;1.30;99.90;;;;;;4440890;32;20185;-74
2022/03/02 08:05:10;;;;;;;34.00;14.17;;;1.40;99.90;;;;;;4440505;32;20182;-74
2022/03/02 08:07:37;;;;;;;30.10;14.43;;;1.60;99.90;;;;;;4441525;32;20187;-74
2022/03/02 08:10:05;;;;;;;34.67;14.70;;;1.60;99.90;;;;;;4454430;32;20166;-74
2022/03/02 08:12:32;;;;;;;30.87;14.30;;;1.70;99.90;;;;;;4434569;32;20236;-73
2022/03/02 08:15:00;;;;;;;28.63;13.63;;;1.80;99.90;;;;;;4431321;32;20252;-72
2022/03/02 08:17:27;;;;;;;28.83;13.30;;;1.90;99.90;;;;;;4441559;32;20234;-73
2022/03/02 08:19:53;;;;;;;31.87;12.70;;;2.20;99.90;;;;;;4440653;32;20591;-73
2022/03/02 08:22:24;;;;;;;23.43;11.53;;;2.70;99.90;;;;;;4440065;32;20174;-73
2022/03/02 08:25:08;;;;;;;27.17;11.70;;;3.30;99.90;;;;;;4430281;32;20178;-74
2022/03/02 08:27:38;;;;;;;28.43;11.77;;;3.80;99.90;;;;;;4439306;32;20170;-74
2022/03/02 08:30:07;;;;;;;27.70;11.63;;;4.30;99.90;;;;;;4440836;32;20154;-75
2022/03/02 08:32:45;;;;;;;23.87;11.47;;;4.80;99.90;;;;;;4442071;32;20602;-72
2022/03/02 08:35:13;;;;;;;23.80;11.40;;;4.90;99.90;;;;;;4443534;32;20541;-71
2022/03/02 08:37:41;;;;;;;25.53;11.60;;;5.10;99.90;;;;;;4433308;32;20217;-74
2022/03/02 08:40:09;;;;;;;24.17;11.10;;;5.50;99.90;;;;;;4442801;32;20178;-75
2022/03/02 08:42:37;;;;;;;26.50;10.70;;;5.80;99.90;;;;;;4442360;32;20222;-71
2022/03/02 08:45:04;;;;;;;24.33;12.23;;;6.20;98.70;;;;;;4451795;32;20592;-68
2022/03/02 08:47:31;;;;;;;22.43;10.43;;;6.40;97.00;;;;;;4432161;32;20199;-69
2022/03/02 08:49:58;;;;;;;21.47;10.37;;;6.70;96.70;;;;;;4427857;32;20176;-69
2022/03/02 08:52:31;;;;;;;24.53;11.77;;;6.90;94.40;;;;;;4427853;32;20222;-69
2022/03/02 08:55:01;;;;;;;21.07;9.93;;;7.10;93.20;;;;;;4426951;32;20193;-71
2022/03/02 08:57:30;;;;;;;22.23;9.53;;;7.20;92.30;;;;;;4427656;32;20582;-71
2022/03/02 08:59:59;;;;;;;18.57;9.30;;;7.20;91.50;;;;;;4429055;32;20193;-71
2022/03/02 09:02:30;;;;;;;19.57;9.57;;;7.10;90.60;;;;;;4426349;32;20208;-71
2022/03/02 09:05:03;;;;;;;22.93;10.90;;;7.10;90.00;;;;;;4442372;32;20167;-71
2022/03/02 09:07:30;;;;;;;21.03;10.30;;;7.40;90.10;;;;;;4433245;32;20249;-71
2022/03/02 09:09:58;;;;;;;22.07;10.83;;;7.80;88.70;;;;;;4443493;32;20204;-72
2022/03/02 09:12:26;;;;;;;20.60;10.53;;;7.90;85.20;;;;;;4456966;32;20165;-71
2022/03/02 09:14:54;;;;;;;18.73;10.07;;;7.80;83.90;;;;;;4456953;32;20138;-71
2022/03/02 09:17:24;;;;;;;21.40;10.40;;;8.10;81.60;;;;;;4457504;32;20412;-72
2022/03/02 09:19:52;;;;;;;22.13;10.83;;;8.40;80.30;;;;;;4442662;32;20426;-72
2022/03/02 09:22:22;;;;;;;21.53;10.50;;;8.60;78.40;;;;;;4442037;32;20437;-72
2022/03/02 09:24:49;;;;;;;22.00;10.47;;;8.90;76.60;;;;;;4457479;32;20549;-73
2022/03/02 09:27:18;;;;;;;21.07;10.73;;;9.20;75.00;;;;;;4457920;32;20176;-72
2022/03/02 09:29:46;;;;;;;23.67;11.47;;;9.70;73.60;;;;;;4454670;32;20248;-72
2022/03/02 09:32:15;;;;;;;23.40;11.30;;;10.10;70.80;;;;;;4443617;32;20208;-74
2022/03/02 09:34:49;;;;;;;25.43;11.83;;;10.30;67.10;;;;;;4442347;32;20236;-74
2022/03/02 09:37:17;;;;;;;19.77;10.60;;;10.40;65.00;;;;;;4455895;32;20214;-73
2022/03/02 09:39:48;;;;;;;16.07;8.67;;;10.60;63.80;;;;;;4443370;32;20255;-74
2022/03/02 09:42:22;;;;;;;22.40;11.20;;;10.60;61.10;;;;;;4456461;32;20224;-72
2022/03/02 09:44:57;;;;;;;25.30;12.57;;;10.70;60.30;;;;;;4457862;32;20146;-72
2022/03/02 09:47:24;;;;;;;24.53;12.83;;;10.90;60.50;;;;;;4438110;32;20208;-71
2022/03/02 09:49:56;;;;;;;23.60;12.10;;;11.20;59.40;;;;;;4428927;32;20205;-73
2022/03/02 09:52:23;;;;;;;25.07;13.23;;;11.40;58.50;;;;;;4427494;32;20177;-71
2022/03/02 09:54:53;;;;;;;27.87;12.83;;;11.60;58.00;;;;;;4426310;32;20270;-72
2022/03/02 09:57:21;;;;;;;23.93;12.97;;;11.60;57.40;;;;;;4428347;32;20539;-73
2022/03/02 09:59:52;;;;;;;29.03;13.40;;;11.90;57.20;;;;;;4426145;32;20178;-71
2022/03/02 10:02:40;;;;;;;28.53;13.30;;;12.00;57.00;;;;;;4425938;32;20193;-71
2022/03/02 10:05:10;;;;;;;25.77;13.17;;;12.20;56.30;;;;;;4427515;32;20197;-68
2022/03/02 10:07:40;;;;;;;27.47;12.90;;;12.50;55.70;;;;;;4430056;32;20265;-73
2022/03/02 10:10:13;;;;;;;25.07;12.80;;;12.70;54.70;;;;;;4427966;32;20260;-69
2022/03/02 10:12:41;;;;;;;25.27;12.23;;;12.70;53.80;;;;;;4441387;32;20225;-67
2022/03/02 10:15:13;;;;;;;26.73;12.70;;;12.70;53.50;;;;;;4442871;32;20225;-67
2022/03/02 10:17:43;;;;;;;28.23;12.27;;;12.60;53.60;;;;;;4455943;32;20196;-69
2022/03/02 10:20:26;;;;;;;25.67;12.73;;;12.80;53.80;;;;;;4441127;32;20208;-70
2022/03/02 10:22:59;;;;;;;26.03;11.77;;;13.00;53.40;;;;;;4442859;32;20165;-70
2022/03/02 10:26:00;;;;;;;23.63;11.90;;;13.10;52.60;;;;;;4441430;32;20185;-72
2022/03/02 10:28:31;;;;;;;21.07;11.37;;;13.60;51.60;;;;;;4440600;32;20543;-71
2022/03/02 10:31:25;;;;;;;25.00;11.77;;;13.80;50.40;;;;;;4442532;32;20507;-71
2022/03/02 10:33:55;;;;;;;24.13;11.63;;;14.00;50.00;;;;;;4363850;32;20184;-73
2022/03/02 10:36:26;;;;;;;23.43;11.73;;;14.10;49.70;;;;;;4364535;32;20277;-73
2022/03/02 10:38:59;;;;;;;21.83;11.20;;;14.30;49.40;;;;;;4362227;32;20191;-72
2022/03/02 10:41:29;;;;;;;24.10;10.73;;;14.40;49.20;;;;;;4378052;32;20148;-73
2022/03/02 10:44:05;;;;;;;20.17;9.80;;;14.60;48.50;;;;;;4365088;32;20203;-73
2022/03/02 10:46:34;;;;;;;22.20;10.93;;;14.80;47.90;;;;;;4378925;32;20466;-71
2022/03/02 10:49:19;;;;;;;22.37;11.30;;;14.80;47.30;;;;;;4365209;32;20549;-70
2022/03/02 10:51:47;;;;;;;21.57;10.97;;;15.00;47.70;;;;;;4353378;32;20180;-70
2022/03/02 10:54:17;;;;;;;21.63;11.00;;;15.20;47.00;;;;;;4363215;32;20370;-70
2022/03/02 10:56:44;;;;;;;20.77;10.93;;;15.50;47.10;;;;;;4350712;32;20203;-70
2022/03/02 10:59:17;;;;;;;17.53;9.77;;;15.70;45.90;;;;;;4361797;32;20272;-70
2022/03/02 11:01:51;;;;;;;20.60;9.90;;;15.40;45.60;;;;;;4349404;33;20187;-73
2022/03/02 11:04:20;;;;;;;19.10;10.13;;;15.50;45.60;;;;;;4349041;33;20426;-71
2022/03/02 11:06:47;;;;;;;18.57;10.30;;;15.40;45.40;;;;;;4350739;32;20218;-71
2022/03/02 11:09:34;;;;;;;21.80;10.03;;;14.80;46.10;;;;;;4365059;32;20172;-69
2022/03/02 11:12:01;;;;;;;20.33;10.53;;;15.10;46.40;;;;;;4421972;32;20233;-71
2022/03/02 11:14:28;;;;;;;22.07;10.03;;;14.70;46.00;;;;;;4426749;32;20196;-68
2022/03/02 11:17:28;;;;;;;18.50;10.17;;;14.80;46.30;;;;;;4426156;32;20189;-71
2022/03/02 11:19:57;;;;;;;20.13;10.73;;;14.90;46.30;;;;;;4353008;32;20231;-69
2022/03/02 11:22:27;;;;;;;20.90;10.63;;;15.10;45.60;;;;;;4356840;32;20251;-70
2022/03/02 11:24:56;;;;;;;19.77;10.50;;;14.50;45.70;;;;;;4364925;32;20595;-71
2022/03/02 11:27:45;;;;;;;19.27;9.97;;;14.60;47.00;;;;;;4364439;32;20206;-68
2022/03/02 11:30:16;;;;;;;19.43;10.20;;;15.20;46.60;;;;;;4365608;32;20382;-69
2022/03/02 11:32:45;;;;;;;18.20;9.43;;;15.70;44.90;;;;;;4363297;32;20187;-70
2022/03/02 11:35:19;;;;;;;17.23;9.30;;;16.10;44.40;;;;;;4363506;32;20167;-67
2022/03/02 11:37:57;;;;;;;18.13;9.53;;;16.00;43.90;;;;;;4361743;32;20188;-68
2022/03/02 11:40:39;;;;;;;18.70;9.50;;;16.20;44.10;;;;;;4348859;33;20725;-68
2022/03/02 11:43:15;;;;;;;20.43;9.67;;;16.50;42.90;;;;;;4360979;33;20530;-69
2022/03/02 11:45:46;;;;;;;18.17;9.23;;;16.50;42.20;;;;;;4349965;32;20254;-69
2022/03/02 11:48:15;;;;;;;18.17;9.60;;;16.50;42.10;;;;;;4361417;33;20228;-69
2022/03/02 11:51:00;;;;;;;19.47;9.27;;;16.90;41.60;;;;;;4350125;33;20176;-69
2022/03/02 11:53:33;;;;;;;18.07;10.03;;;17.60;41.50;;;;;;4349698;33;20243;-68
2022/03/02 11:56:02;;;;;;;16.23;9.10;;;18.40;40.30;;;;;;4389661;32;20190;-68
2022/03/02 11:59:03;;;;;;;19.37;9.07;;;19.10;40.00;;;;;;4426165;32;20198;-69
2022/03/02 12:01:53;;;;;;;19.93;9.40;;;19.90;38.70;;;;;;4425461;32;20234;-67
2022/03/02 12:04:31;;;;;;;18.43;9.40;;;20.00;37.40;;;;;;4425690;32;20200;-69
2022/03/02 12:07:03;;;;;;;19.30;9.37;;;20.30;36.90;;;;;;4436059;32;20240;-69
2022/03/02 12:09:38;;;;;;;18.37;9.53;;;20.40;36.80;;;;;;4427230;32;20182;-68
2022/03/02 12:12:16;;;;;;;15.33;9.43;;;20.80;35.90;;;;;;4427933;32;20166;-70
2022/03/02 12:15:01;;;;;;;20.13;9.27;;;20.00;36.30;;;;;;4428021;32;20196;-70
2022/03/02 12:17:33;;;;;;;17.87;9.40;;;20.60;36.20;;;;;;4429561;32;20182;-70
2022/03/02 12:20:12;;;;;;;15.03;9.03;;;20.40;35.40;;;;;;4427284;32;20451;-69
2022/03/02 12:22:45;;;;;;;14.20;8.47;;;20.30;35.40;;;;;;4428848;32;20197;-68
2022/03/02 12:25:20;;;;;;;14.90;8.40;;;20.40;35.20;;;;;;4427927;32;20219;-69
2022/03/02 12:27:58;;;;;;;16.53;9.20;;;20.80;35.50;;;;;;4428260;32;20296;-70
2022/03/02 12:30:28;;;;;;;19.87;9.50;;;21.50;35.30;;;;;;4428797;32;20194;-73
2022/03/02 12:32:56;;;;;;;17.17;8.87;;;21.80;34.10;;;;;;4441291;32;20170;-71
2022/03/02 12:35:23;;;;;;;13.10;8.50;;;22.20;32.80;;;;;;4429049;32;20521;-68
2022/03/02 12:37:53;;;;;;;15.47;8.47;;;22.30;32.40;;;;;;4432831;32;20200;-67
2022/03/02 12:40:20;;;;;;;14.05;7.87;;;22.10;31.90;;;;;;4441734;32;20441;-66
2022/03/02 12:42:47;;;;;;;14.47;7.90;;;22.00;32.00;;;;;;4443336;32;20174;-66